Aviation Digital Data Service (ADDS)

Output produced by METARs form (1532 UTC 20 March 2019)
found at http://www.aviationweather.gov/metar/data/
 
Forecast for: LPMT (MONTIJO (POR-AFB, PT)
Text: TAF LPMT 201101Z 2012/2112 04010KT CAVOK
Forecast period: 1200 UTC 20 March 2019 to 0000 UTC 21 March 2019
Forecast type: FROM: standard forecast or significant change
Winds: from the NE (40 degrees) at 12 MPH (10 knots; 5.1 m/s)
Visibility: 6 or more miles 10+ km)
Ceiling: unknown
Clouds: missing
Weather: NSW  (no significant weather)
Text: BECMG 2100/2102 VRB02KT
Forecast period: 0000 to 1200 UTC 21 March 2019
Forecast type: BECOMING: Conditions expected to become as follows by 0200 UTC 21 March 2019
Winds: variable direction winds at 2 MPH (2 knots; 1.0 m/s)
Visibility: 6 or more miles 10+ km)
Ceiling: unknown
Clouds: missing
Weather: NSW  (no significant weather)